Main page


Airports :

Doha, Qatar

Hamad International Airport

latitude: 25-16-23N, longitude: 51-36-29E, elevation: 4 m

Current weather observation

The report was made 1 hour and 1 minutes ago, at 09:00 UTC
Wind 18 kt from the North
Temperature 26°C
Humidity 32%
Pressure 1013 hPa
Visibility 10 km or more
no clouds below 1500 m and no cumulonimbus

METAR: OTHH 180900Z AUTO 01018KT CAVOK 26/08 Q1013 NOSIG

Time: 13:01 (10:01 UTC)


The report was made 4 hours and 51 minutes ago, at 05:10 UTC
Forecast valid from 18 at 06 UTC to 19 at 12 UTC
Wind 18 kt from the North
Visibility: 8000 m
from 18 at 19 UTC to 18 at 21 UTC
Wind 9 kt from the West/Northwest

TAF: OTHH 180510Z 1806/1912 36018KT 8000 NSC BECMG 1819/1821 30009KT

Weather observations and forecasts of more than 4000 airports (METAR and TAF reports).

The available stations are represented by yellow and red dots on the map.

Hover mouse over dot to see the name of the station.

Then click to see weather observations and forecasts.

To change the map : click on the green buttons with a black cross to zoom in, on the green button with a dash to zoom out, or on the green arrows for adjacent maps.